createdAt,value
2024-04-13T00:01:09.265Z,8.40
2024-04-13T00:03:32.577Z,9.55
2024-04-13T00:05:55.911Z,9.88
2024-04-13T00:08:19.153Z,7.65
2024-04-13T00:10:44.312Z,8.55
2024-04-13T00:13:07.521Z,8.65
2024-04-13T00:15:31.984Z,11.27
2024-04-13T00:17:56.310Z,9.45
2024-04-13T00:20:19.467Z,6.78
2024-04-13T00:22:42.661Z,9.27
2024-04-13T00:25:06.434Z,7.13
2024-04-13T00:27:29.608Z,7.40
2024-04-13T00:29:52.837Z,7.00
2024-04-13T00:32:16.124Z,9.95
2024-04-13T00:34:39.198Z,5.38
2024-04-13T00:37:05.389Z,6.63
2024-04-13T00:39:28.606Z,6.18
2024-04-13T00:41:54.438Z,6.47
2024-04-13T00:44:17.629Z,7.13
2024-04-13T00:46:43.853Z,8.75
2024-04-13T00:49:15.094Z,6.22
2024-04-13T00:51:39.383Z,5.53
2024-04-13T00:54:02.614Z,6.77
2024-04-13T00:56:27.272Z,7.53
2024-04-13T00:58:50.792Z,7.45
2024-04-13T01:01:15.777Z,7.60
2024-04-13T01:03:40.340Z,8.00
2024-04-13T01:06:04.895Z,8.90
2024-04-13T01:08:31.105Z,7.55
2024-04-13T01:10:54.258Z,8.25
2024-04-13T01:13:18.626Z,6.88
2024-04-13T01:15:41.979Z,10.63
2024-04-13T01:18:06.210Z,7.78
2024-04-13T01:20:30.446Z,8.10
2024-04-13T01:22:53.902Z,7.18
2024-04-13T01:25:17.345Z,9.48
2024-04-13T01:27:41.099Z,8.23
2024-04-13T01:30:09.981Z,6.70
2024-04-13T01:32:34.135Z,9.55
2024-04-13T01:35:07.946Z,10.10
2024-04-13T01:37:31.138Z,9.45
2024-04-13T01:39:55.245Z,9.27
2024-04-13T01:42:18.961Z,8.00
2024-04-13T01:44:42.751Z,9.70
2024-04-13T01:47:06.733Z,10.05
2024-04-13T01:49:30.307Z,8.10
2024-04-13T01:51:53.520Z,9.52
2024-04-13T01:54:17.190Z,8.10
2024-04-13T01:56:40.728Z,7.53
2024-04-13T01:59:04.990Z,10.27
2024-04-13T02:01:29.194Z,13.60
2024-04-13T02:03:52.727Z,11.10
2024-04-13T02:06:16.727Z,8.63
2024-04-13T02:08:40.107Z,9.02
2024-04-13T02:11:08.069Z,9.15
2024-04-13T02:13:31.346Z,8.35
2024-04-13T02:15:55.811Z,7.35
2024-04-13T02:18:19.708Z,9.33
2024-04-13T02:20:43.472Z,7.40
2024-04-13T02:23:06.539Z,9.52
2024-04-13T02:25:31.661Z,8.85
2024-04-13T02:27:54.838Z,10.38
2024-04-13T02:30:18.403Z,10.38
2024-04-13T02:32:41.934Z,14.93
2024-04-13T02:35:05.381Z,8.10
2024-04-13T02:37:29.285Z,10.43
2024-04-13T02:39:52.487Z,9.88
2024-04-13T02:42:16.058Z,10.67
2024-04-13T02:44:39.510Z,11.50
2024-04-13T02:47:03.014Z,10.10
2024-04-13T02:49:26.329Z,8.38
2024-04-13T02:51:49.535Z,11.13
2024-04-13T02:54:14.127Z,11.00
2024-04-13T02:56:37.907Z,10.30
2024-04-13T02:59:01.765Z,11.13
2024-04-13T03:01:25.008Z,9.82
2024-04-13T03:03:49.656Z,8.63
2024-04-13T03:06:15.601Z,10.40
2024-04-13T03:08:40.070Z,9.38
2024-04-13T03:11:04.687Z,9.85
2024-04-13T03:13:28.473Z,9.95
2024-04-13T03:16:04.956Z,8.90
2024-04-13T03:18:28.340Z,8.23
2024-04-13T03:20:51.520Z,10.18
2024-04-13T03:23:14.649Z,9.63
2024-04-13T03:25:37.793Z,11.13
2024-04-13T03:28:00.923Z,10.68
2024-04-13T03:30:24.331Z,10.90
2024-04-13T03:32:47.735Z,7.45
2024-04-13T03:35:10.875Z,9.75
2024-04-13T03:37:33.989Z,8.50
2024-04-13T03:39:57.136Z,9.52
2024-04-13T03:42:22.080Z,9.60
2024-04-13T03:44:45.645Z,9.80
2024-04-13T03:47:09.214Z,9.73
2024-04-13T03:49:32.327Z,9.82
2024-04-13T03:51:57.689Z,8.77
2024-04-13T03:54:21.403Z,7.40
2024-04-13T03:56:44.802Z,9.88
2024-04-13T03:59:07.989Z,8.52
2024-04-13T04:01:31.291Z,11.10
2024-04-13T04:03:55.192Z,8.98
2024-04-13T04:06:19.870Z,9.27
2024-04-13T04:08:43.551Z,8.82
2024-04-13T04:11:06.675Z,10.63
2024-04-13T04:13:29.977Z,10.20
2024-04-13T04:15:53.571Z,7.82
2024-04-13T04:18:17.184Z,8.57
2024-04-13T04:20:42.561Z,11.32
2024-04-13T04:23:06.821Z,10.32
2024-04-13T04:25:30.070Z,9.13
2024-04-13T04:27:53.278Z,10.88
2024-04-13T04:30:16.936Z,10.05
2024-04-13T04:32:40.502Z,10.88
2024-04-13T04:35:03.771Z,8.48
2024-04-13T04:37:26.991Z,10.48
2024-04-13T04:39:50.110Z,13.23
2024-04-13T04:42:13.864Z,8.03
2024-04-13T04:44:37.735Z,7.35
2024-04-13T04:47:00.807Z,7.63
2024-04-13T04:49:23.975Z,9.00
2024-04-13T04:51:47.249Z,8.65
2024-04-13T04:54:10.756Z,8.93
2024-04-13T04:56:35.574Z,9.35
2024-04-13T04:58:59.485Z,9.75
2024-04-13T05:01:22.595Z,8.93
2024-04-13T05:03:47.183Z,7.97
2024-04-13T05:06:11.591Z,7.28
2024-04-13T05:08:35.673Z,8.05
2024-04-13T05:10:59.283Z,10.05
2024-04-13T05:13:22.474Z,9.07
2024-04-13T05:15:45.659Z,7.85
2024-04-13T05:18:10.290Z,9.32
2024-04-13T05:20:35.067Z,9.52
2024-04-13T05:22:58.155Z,8.77
2024-04-13T05:25:21.255Z,8.82
2024-04-13T05:27:44.445Z,9.77
2024-04-13T05:30:12.266Z,11.57
2024-04-13T05:32:36.367Z,10.25
2024-04-13T05:34:59.634Z,7.32
2024-04-13T05:37:23.394Z,9.57
2024-04-13T05:39:47.230Z,11.07
2024-04-13T05:42:12.013Z,8.20
2024-04-13T05:44:35.676Z,7.75
2024-04-13T05:46:58.892Z,9.05
2024-04-13T05:49:22.117Z,8.88
2024-04-13T05:51:47.084Z,8.05
2024-04-13T05:54:10.670Z,7.68
2024-04-13T05:56:34.333Z,7.97
2024-04-13T05:58:57.469Z,9.02
2024-04-13T06:01:21.799Z,7.88
2024-04-13T06:03:45.193Z,13.63
2024-04-13T06:06:09.062Z,8.48
2024-04-13T06:08:32.560Z,7.40
2024-04-13T06:10:55.786Z,7.00
2024-04-13T06:13:18.964Z,9.48
2024-04-13T06:15:42.234Z,9.43
2024-04-13T06:18:06.693Z,8.27
2024-04-13T06:20:30.550Z,9.57
2024-04-13T06:22:53.740Z,8.75
2024-04-13T06:25:17.878Z,10.73
2024-04-13T06:27:41.237Z,7.78
2024-04-13T06:30:07.761Z,7.95
2024-04-13T06:32:32.556Z,10.35
2024-04-13T06:34:55.763Z,10.90
2024-04-13T06:37:18.992Z,9.07
2024-04-13T06:39:42.217Z,8.93
2024-04-13T06:42:06.968Z,7.97
2024-04-13T06:44:31.166Z,6.72
2024-04-13T06:46:54.515Z,11.68
2024-04-13T06:49:18.331Z,11.02
2024-04-13T06:51:41.814Z,9.65
2024-04-13T06:54:05.521Z,8.88
2024-04-13T06:56:29.504Z,6.25
2024-04-13T06:58:52.739Z,6.32
2024-04-13T07:01:16.077Z,11.23
2024-04-13T07:03:42.195Z,9.05
2024-04-13T07:06:06.833Z,11.68
2024-04-13T07:08:31.260Z,9.38
2024-04-13T07:10:57.062Z,9.60
2024-04-13T07:13:20.752Z,8.88
2024-04-13T07:15:44.084Z,10.20
2024-04-13T07:18:10.573Z,10.82
2024-04-13T07:20:34.798Z,10.07
2024-04-13T07:22:57.931Z,11.70
2024-04-13T07:25:21.012Z,7.95
2024-04-13T07:27:44.256Z,9.18
2024-04-13T07:30:09.605Z,7.18
2024-04-13T07:32:33.907Z,6.57
2024-04-13T07:34:57.154Z,10.75
2024-04-13T07:37:20.756Z,7.45
2024-04-13T07:39:43.907Z,8.15
2024-04-13T07:42:08.890Z,6.72
2024-04-13T07:44:35.377Z,7.05
2024-04-13T07:47:01.193Z,6.20
2024-04-13T07:49:24.393Z,5.95
2024-04-13T07:51:47.622Z,8.77
2024-04-13T07:54:12.183Z,7.07
2024-04-13T07:56:36.139Z,7.10
2024-04-13T07:58:59.362Z,5.55
2024-04-13T08:01:22.452Z,10.88
2024-04-13T08:03:46.014Z,7.00
2024-04-13T08:06:09.724Z,8.25
2024-04-13T08:08:33.148Z,7.07
2024-04-13T08:10:56.527Z,9.07
2024-04-13T08:13:19.746Z,6.00
2024-04-13T08:15:43.183Z,7.82
2024-04-13T08:18:11.190Z,6.72
2024-04-13T08:20:35.859Z,6.07
2024-04-13T08:22:59.032Z,5.90
2024-04-13T08:25:22.456Z,7.38
2024-04-13T08:27:45.668Z,5.13
2024-04-13T08:30:13.107Z,7.43
2024-04-13T08:32:36.767Z,5.38
2024-04-13T08:34:59.991Z,5.43
2024-04-13T08:37:23.186Z,6.00
2024-04-13T08:39:46.800Z,6.93
2024-04-13T08:42:16.094Z,6.32
2024-04-13T08:44:40.033Z,6.50
2024-04-13T08:47:03.650Z,5.78
2024-04-13T08:49:29.179Z,6.15
2024-04-13T08:51:52.562Z,6.60
2024-04-13T08:54:17.900Z,5.15
2024-04-13T08:56:43.517Z,5.78
2024-04-13T08:59:12.360Z,6.90
2024-04-13T09:01:36.362Z,7.95
2024-04-13T09:04:00.069Z,5.20
2024-04-13T09:06:23.623Z,8.73
2024-04-13T09:08:51.486Z,5.95
2024-04-13T09:11:15.077Z,6.75
2024-04-13T09:13:42.121Z,5.82
2024-04-13T09:16:07.673Z,6.20
2024-04-13T09:18:31.064Z,6.60
2024-04-13T09:20:57.511Z,5.85
2024-04-13T09:23:20.739Z,5.43
2024-04-13T09:25:44.002Z,5.72
2024-04-13T09:28:07.322Z,5.63
2024-04-13T09:30:31.087Z,5.53
2024-04-13T09:33:08.198Z,6.57
2024-04-13T09:35:31.927Z,4.80
2024-04-13T09:38:02.440Z,5.47
2024-04-13T09:40:26.429Z,6.72
2024-04-13T09:42:49.950Z,4.88
2024-04-13T09:45:13.757Z,5.32
2024-04-13T09:47:39.538Z,5.55
2024-04-13T09:50:02.867Z,5.22
2024-04-13T09:52:26.859Z,6.38
2024-04-13T09:54:50.470Z,5.78
2024-04-13T09:57:15.837Z,6.97
2024-04-13T09:59:41.170Z,5.80
2024-04-13T10:02:04.674Z,6.22
2024-04-13T10:04:27.990Z,4.80
2024-04-13T10:06:53.824Z,5.50
2024-04-13T10:09:20.800Z,4.78
2024-04-13T10:11:46.500Z,4.45
2024-04-13T10:14:09.877Z,4.93
2024-04-13T10:16:33.520Z,4.05
2024-04-13T10:18:57.409Z,4.30
2024-04-13T10:21:23.198Z,4.95
2024-04-13T10:23:47.054Z,3.97
2024-04-13T10:26:10.494Z,4.18
2024-04-13T10:28:33.796Z,3.88
2024-04-13T10:30:58.159Z,6.82
2024-04-13T10:33:26.949Z,5.63
2024-04-13T10:36:09.391Z,5.22
2024-04-13T10:38:35.107Z,7.85
2024-04-13T10:40:59.050Z,4.07
2024-04-13T10:43:24.468Z,5.82
2024-04-13T10:45:54.656Z,5.00
2024-04-13T10:48:21.386Z,5.03
2024-04-13T10:50:46.698Z,6.85
2024-04-13T10:53:12.911Z,4.88
2024-04-13T10:55:38.632Z,3.97
2024-04-13T10:58:02.527Z,3.92
2024-04-13T11:00:27.130Z,4.15
2024-04-13T11:02:52.416Z,5.32
2024-04-13T11:05:19.261Z,3.72
2024-04-13T11:07:43.027Z,5.03
2024-04-13T11:10:06.674Z,4.10
2024-04-13T11:12:29.909Z,5.78
2024-04-13T11:14:53.213Z,4.45
2024-04-13T11:17:16.360Z,4.15
2024-04-13T11:19:39.613Z,5.68
2024-04-13T11:22:04.216Z,6.00
2024-04-13T11:24:28.535Z,7.20
2024-04-13T11:26:53.468Z,4.10
2024-04-13T11:29:16.655Z,3.55
2024-04-13T11:31:39.908Z,5.13
2024-04-13T11:34:03.518Z,7.55
2024-04-13T11:36:27.352Z,5.25
2024-04-13T11:38:50.594Z,4.82
2024-04-13T11:41:13.788Z,4.72
2024-04-13T11:43:37.169Z,4.35
2024-04-13T11:46:00.477Z,4.82
2024-04-13T11:48:24.237Z,4.70
2024-04-13T11:50:49.508Z,4.30
2024-04-13T11:53:12.858Z,4.93
2024-04-13T11:55:39.225Z,7.05
2024-04-13T11:58:02.938Z,4.50
2024-04-13T12:00:26.605Z,6.22
2024-04-13T12:02:49.787Z,5.68
2024-04-13T12:05:13.052Z,3.78
2024-04-13T12:07:36.469Z,6.25
2024-04-13T12:10:00.056Z,4.28
2024-04-13T12:12:24.030Z,5.07
2024-04-13T12:14:54.543Z,5.82
2024-04-13T12:17:18.818Z,3.78
2024-04-13T12:19:42.116Z,3.83
2024-04-13T12:22:05.903Z,3.92
2024-04-13T12:24:29.800Z,4.82
2024-04-13T12:26:55.719Z,5.00
2024-04-13T12:29:19.004Z,4.75
2024-04-13T12:31:42.239Z,4.30
2024-04-13T12:34:07.761Z,5.75
2024-04-13T12:36:31.091Z,6.05
2024-04-13T12:38:55.724Z,5.13
2024-04-13T12:41:19.488Z,6.60
2024-04-13T12:43:42.680Z,5.70
2024-04-13T12:46:06.636Z,7.10
2024-04-13T12:48:30.477Z,6.22
2024-04-13T12:50:53.748Z,6.45
2024-04-13T12:53:16.998Z,6.30
2024-04-13T12:55:41.503Z,4.97
2024-04-13T12:58:05.465Z,6.20
2024-04-13T13:00:29.937Z,8.60
2024-04-13T13:02:53.401Z,5.28
2024-04-13T13:05:16.705Z,5.10
2024-04-13T13:07:39.919Z,4.35
2024-04-13T13:10:03.374Z,5.28
2024-04-13T13:12:26.914Z,5.40
2024-04-13T13:14:50.133Z,6.60
2024-04-13T13:17:16.134Z,4.35
2024-04-13T13:19:39.804Z,3.72
2024-04-13T13:22:03.037Z,6.63
2024-04-13T13:24:29.398Z,4.70
2024-04-13T13:26:52.511Z,4.55
2024-04-13T13:29:15.701Z,8.32
2024-04-13T13:31:38.939Z,4.72
2024-04-13T13:34:07.758Z,6.32
2024-04-13T13:36:31.525Z,5.25
2024-04-13T13:38:54.702Z,8.10
2024-04-13T13:41:18.105Z,3.95
2024-04-13T13:43:41.418Z,8.40
2024-04-13T13:46:04.922Z,5.38
2024-04-13T13:48:28.138Z,3.70
2024-04-13T13:50:51.360Z,4.05
2024-04-13T13:53:14.580Z,4.40
2024-04-13T13:55:37.780Z,2.78
2024-04-13T13:58:02.176Z,3.97
2024-04-13T14:00:26.039Z,4.72
2024-04-13T14:02:49.216Z,4.30
2024-04-13T14:05:12.566Z,6.60
2024-04-13T14:07:35.874Z,5.43
2024-04-13T14:09:59.069Z,2.72
2024-04-13T14:12:22.773Z,3.13
2024-04-13T14:14:46.036Z,4.68
2024-04-13T14:17:09.082Z,5.07
2024-04-13T14:19:32.606Z,3.80
2024-04-13T14:21:56.015Z,4.85
2024-04-13T14:24:19.590Z,6.88
2024-04-13T14:26:43.215Z,3.58
2024-04-13T14:29:06.440Z,5.78
2024-04-13T14:31:29.606Z,5.18
2024-04-13T14:33:53.169Z,4.05
2024-04-13T14:36:16.854Z,5.30
2024-04-13T14:38:40.306Z,3.95
2024-04-13T14:41:03.636Z,2.58
2024-04-13T14:43:29.829Z,2.63
2024-04-13T14:45:53.062Z,5.25
2024-04-13T14:48:16.986Z,4.63
2024-04-13T14:50:41.172Z,5.10
2024-04-13T14:53:04.661Z,5.32
2024-04-13T14:55:27.933Z,2.97
2024-04-13T14:57:54.063Z,4.13
2024-04-13T15:00:19.746Z,4.95
2024-04-13T15:02:44.011Z,3.75
2024-04-13T15:05:07.841Z,2.95
2024-04-13T15:07:31.031Z,4.75
2024-04-13T15:09:54.304Z,4.10
2024-04-13T15:12:17.841Z,5.68
2024-04-13T15:14:41.406Z,6.18
2024-04-13T15:17:08.084Z,8.02
2024-04-13T15:19:31.604Z,3.47
2024-04-13T15:21:54.772Z,4.45
2024-04-13T15:24:18.494Z,4.70
2024-04-13T15:26:42.073Z,5.65
2024-04-13T15:29:07.865Z,3.75
2024-04-13T15:31:31.154Z,3.97
2024-04-13T15:33:54.604Z,4.40
2024-04-13T15:36:18.242Z,3.60
2024-04-13T15:38:41.633Z,3.50
2024-04-13T15:41:05.441Z,4.93
2024-04-13T15:43:28.774Z,3.78
2024-04-13T15:45:53.165Z,6.13
2024-04-13T15:48:17.041Z,5.72
2024-04-13T15:50:40.535Z,3.13
2024-04-13T15:53:04.203Z,4.18
2024-04-13T15:55:27.447Z,4.60
2024-04-13T15:57:51.315Z,6.68
2024-04-13T16:00:20.484Z,4.97
2024-04-13T16:02:44.035Z,4.90
2024-04-13T16:05:07.495Z,3.20
2024-04-13T16:07:33.413Z,4.40
2024-04-13T16:09:56.828Z,5.50
2024-04-13T16:12:20.363Z,6.70
2024-04-13T16:14:43.839Z,5.43
2024-04-13T16:17:07.230Z,3.75
2024-04-13T16:19:36.502Z,5.80
2024-04-13T16:22:06.126Z,4.72
2024-04-13T16:24:29.376Z,4.60
2024-04-13T16:26:52.576Z,4.30
2024-04-13T16:29:15.909Z,4.63
2024-04-13T16:31:39.042Z,3.28
2024-04-13T16:34:02.225Z,3.22
2024-04-13T16:36:25.491Z,5.88
2024-04-13T16:38:48.683Z,5.32
2024-04-13T16:41:11.901Z,4.82
2024-04-13T16:43:35.143Z,3.78
2024-04-13T16:45:58.803Z,4.03
2024-04-13T16:48:23.005Z,4.45
2024-04-13T16:50:59.753Z,4.88
2024-04-13T16:53:23.145Z,7.32
2024-04-13T16:55:46.283Z,7.90
2024-04-13T16:58:09.576Z,4.07
2024-04-13T17:00:32.805Z,4.57
2024-04-13T17:02:57.670Z,4.35
2024-04-13T17:05:22.043Z,4.20
2024-04-13T17:07:45.245Z,6.22
2024-04-13T17:10:08.638Z,4.35
2024-04-13T17:12:31.825Z,5.13
2024-04-13T17:14:56.082Z,5.43
2024-04-13T17:17:19.258Z,4.97
2024-04-13T17:19:43.997Z,4.38
2024-04-13T17:22:07.390Z,4.10
2024-04-13T17:24:30.491Z,3.88
2024-04-13T17:26:53.670Z,7.13
2024-04-13T17:29:16.823Z,5.72
2024-04-13T17:31:40.005Z,5.28
2024-04-13T17:34:03.498Z,4.53
2024-04-13T17:36:27.264Z,6.90
2024-04-13T17:38:50.360Z,5.18
2024-04-13T17:41:14.537Z,5.97
2024-04-13T17:43:37.790Z,6.15
2024-04-13T17:46:00.927Z,5.55
2024-04-13T17:48:24.494Z,4.20
2024-04-13T17:50:51.466Z,3.25
2024-04-13T17:53:16.538Z,3.65
2024-04-13T17:55:42.030Z,4.65
2024-04-13T17:58:05.507Z,3.88
2024-04-13T18:00:28.727Z,3.65
2024-04-13T18:02:51.933Z,5.38
2024-04-13T18:05:15.279Z,5.10
2024-04-13T18:07:38.551Z,3.97
2024-04-13T18:10:01.791Z,3.47
2024-04-13T18:12:25.333Z,2.60
2024-04-13T18:14:48.413Z,4.88
2024-04-13T18:17:12.516Z,4.15
2024-04-13T18:19:35.760Z,7.10
2024-04-13T18:21:58.931Z,5.43
2024-04-13T18:24:22.776Z,5.03
2024-04-13T18:26:46.349Z,6.03
2024-04-13T18:29:09.504Z,4.30
2024-04-13T18:31:33.088Z,6.22
2024-04-13T18:33:56.452Z,4.72
2024-04-13T18:36:22.993Z,5.22
2024-04-13T18:38:51.684Z,11.50
2024-04-13T18:41:16.994Z,4.47
2024-04-13T18:43:42.141Z,6.38
2024-04-13T18:46:06.941Z,6.30
2024-04-13T18:48:30.454Z,8.55
2024-04-13T18:50:54.856Z,7.93
2024-04-13T18:53:18.918Z,7.00
2024-04-13T18:55:42.921Z,5.28
2024-04-13T18:58:06.101Z,7.90
2024-04-13T19:00:29.767Z,4.78
2024-04-13T19:02:53.389Z,7.40
2024-04-13T19:05:16.848Z,6.47
2024-04-13T19:07:40.337Z,5.05
2024-04-13T19:10:04.274Z,6.40
2024-04-13T19:12:27.845Z,5.70
2024-04-13T19:14:51.010Z,6.38
2024-04-13T19:17:14.375Z,4.85
2024-04-13T19:19:38.117Z,5.05
2024-04-13T19:22:01.567Z,6.38
2024-04-13T19:24:24.932Z,5.75
2024-04-13T19:26:48.486Z,4.28
2024-04-13T19:29:11.675Z,5.45
2024-04-13T19:31:35.916Z,6.00
2024-04-13T19:33:59.269Z,7.13
2024-04-13T19:36:22.976Z,7.20
2024-04-13T19:38:46.182Z,8.00
2024-04-13T19:41:09.330Z,7.00
2024-04-13T19:43:34.160Z,5.13
2024-04-13T19:45:58.902Z,8.57
2024-04-13T19:48:22.679Z,5.30
2024-04-13T19:50:45.985Z,5.88
2024-04-13T19:53:09.570Z,5.82
2024-04-13T19:55:33.600Z,5.55
2024-04-13T19:57:56.850Z,4.82
2024-04-13T20:00:20.552Z,6.78
2024-04-13T20:02:45.031Z,8.13
2024-04-13T20:05:08.369Z,6.13
2024-04-13T20:07:32.208Z,5.18
2024-04-13T20:09:56.267Z,5.53
2024-04-13T20:12:22.886Z,7.28
2024-04-13T20:15:06.909Z,6.22
2024-04-13T20:17:50.928Z,4.47
2024-04-13T20:20:14.984Z,6.00
2024-04-13T20:22:38.800Z,5.72
2024-04-13T20:25:03.014Z,5.22
2024-04-13T20:27:26.311Z,4.78
2024-04-13T20:29:50.101Z,4.28
2024-04-13T20:32:13.252Z,4.15
2024-04-13T20:34:36.568Z,3.47
2024-04-13T20:36:59.938Z,4.57
2024-04-13T20:39:23.073Z,6.65
2024-04-13T20:41:46.294Z,6.60
2024-04-13T20:44:09.475Z,5.03
2024-04-13T20:46:32.926Z,5.32
2024-04-13T20:48:56.060Z,5.35
2024-04-13T20:51:19.289Z,4.82
2024-04-13T20:53:42.432Z,7.30
2024-04-13T20:56:06.070Z,6.35
2024-04-13T20:58:29.341Z,4.00
2024-04-13T21:00:59.728Z,4.18
2024-04-13T21:03:23.167Z,8.57
2024-04-13T21:05:46.432Z,4.45
2024-04-13T21:08:09.530Z,6.45
2024-04-13T21:10:32.809Z,7.32
2024-04-13T21:12:56.330Z,8.00
2024-04-13T21:15:19.511Z,5.82
2024-04-13T21:17:42.771Z,4.60
2024-04-13T21:20:06.740Z,4.93
2024-04-13T21:22:30.119Z,4.70
2024-04-13T21:24:58.609Z,4.78
2024-04-13T21:27:22.016Z,3.53
2024-04-13T21:29:45.208Z,4.88
2024-04-13T21:32:09.581Z,7.22
2024-04-13T21:34:33.071Z,6.22
2024-04-13T21:36:56.273Z,8.18
2024-04-13T21:39:23.701Z,5.45
2024-04-13T21:41:48.233Z,4.32
2024-04-13T21:44:12.201Z,5.88
2024-04-13T21:46:35.443Z,5.82
2024-04-13T21:48:58.642Z,4.90
2024-04-13T21:51:22.083Z,5.72
2024-04-13T21:53:45.297Z,5.43
2024-04-13T21:56:08.553Z,5.50
2024-04-13T21:58:31.693Z,4.80
2024-04-13T22:00:54.916Z,5.63
2024-04-13T22:03:18.325Z,4.60
2024-04-13T22:05:41.895Z,5.47
2024-04-13T22:08:05.428Z,6.07
2024-04-13T22:10:28.759Z,4.97
2024-04-13T22:12:52.180Z,5.03
2024-04-13T22:15:16.859Z,9.25
2024-04-13T22:17:40.091Z,5.45
2024-04-13T22:20:04.879Z,7.95
2024-04-13T22:22:28.112Z,5.57
2024-04-13T22:24:51.411Z,6.15
2024-04-13T22:27:14.630Z,8.30
2024-04-13T22:29:41.494Z,5.78
2024-04-13T22:32:05.169Z,6.77
2024-04-13T22:34:28.258Z,9.57
2024-04-13T22:36:51.434Z,7.10
2024-04-13T22:39:17.188Z,8.38
2024-04-13T22:41:40.787Z,8.93
2024-04-13T22:44:04.190Z,5.97
2024-04-13T22:46:27.482Z,6.13
2024-04-13T22:48:50.689Z,5.75
2024-04-13T22:51:14.197Z,7.97
2024-04-13T22:53:37.408Z,7.20
2024-04-13T22:56:00.594Z,6.35
2024-04-13T22:58:23.913Z,6.60
2024-04-13T23:00:47.163Z,5.18
2024-04-13T23:03:10.315Z,5.97
2024-04-13T23:05:33.515Z,5.47
2024-04-13T23:07:56.688Z,6.35
2024-04-13T23:10:20.869Z,7.93
2024-04-13T23:12:44.117Z,6.07
2024-04-13T23:15:09.314Z,5.43
2024-04-13T23:17:33.707Z,6.38
2024-04-13T23:19:57.005Z,6.13
2024-04-13T23:22:20.450Z,5.63
2024-04-13T23:24:43.586Z,4.80
2024-04-13T23:27:06.819Z,5.53
2024-04-13T23:29:30.016Z,9.63
2024-04-13T23:31:53.128Z,6.25
2024-04-13T23:34:16.625Z,6.68
2024-04-13T23:36:39.915Z,6.20
2024-04-13T23:39:03.923Z,5.93
2024-04-13T23:41:27.272Z,6.38
2024-04-13T23:43:51.463Z,7.55
2024-04-13T23:46:14.675Z,6.18
2024-04-13T23:48:38.593Z,5.82
2024-04-13T23:51:01.879Z,8.07
2024-04-13T23:53:25.017Z,6.28
2024-04-13T23:55:48.311Z,7.97
2024-04-13T23:58:11.666Z,9.30
